sensor_id;sensor_type;location;lat;lon;timestamp;temperature;humidity
77803;DHT22;66993;48.256;16.422;2023-11-19T00:00:16;2.2;85.0
77803;DHT22;66993;48.256;16.422;2023-11-19T00:05:16;2.2;85.0
77803;DHT22;66993;48.256;16.422;2023-11-19T00:10:16;2.3;85.0
77803;DHT22;66993;48.256;16.422;2023-11-19T00:15:16;2.3;85.0
77803;DHT22;66993;48.256;16.422;2023-11-19T00:20:17;2.1;85.0
77803;DHT22;66993;48.256;16.422;2023-11-19T00:25:16;2.0;85.0
77803;DHT22;66993;48.256;16.422;2023-11-19T00:30:16;2.0;85.0
77803;DHT22;66993;48.256;16.422;2023-11-19T00:35:16;2.0;85.0
77803;DHT22;66993;48.256;16.422;2023-11-19T00:40:16;2.0;85.0
77803;DHT22;66993;48.256;16.422;2023-11-19T00:45:16;2.0;85.0
77803;DHT22;66993;48.256;16.422;2023-11-19T00:50:16;2.1;85.0
77803;DHT22;66993;48.256;16.422;2023-11-19T00:55:16;2.3;85.0
77803;DHT22;66993;48.256;16.422;2023-11-19T01:00:16;2.3;85.0
77803;DHT22;66993;48.256;16.422;2023-11-19T01:05:16;2.3;84.0
77803;DHT22;66993;48.256;16.422;2023-11-19T01:10:16;2.3;84.0
77803;DHT22;66993;48.256;16.422;2023-11-19T01:15:16;2.3;84.0
77803;DHT22;66993;48.256;16.422;2023-11-19T01:20:16;2.3;84.0
77803;DHT22;66993;48.256;16.422;2023-11-19T01:25:16;2.3;84.0
77803;DHT22;66993;48.256;16.422;2023-11-19T01:30:16;2.4;84.0
77803;DHT22;66993;48.256;16.422;2023-11-19T01:35:16;2.5;84.0
77803;DHT22;66993;48.256;16.422;2023-11-19T01:40:19;2.5;84.0
77803;DHT22;66993;48.256;16.422;2023-11-19T01:45:21;2.5;84.0
77803;DHT22;66993;48.256;16.422;2023-11-19T01:50:16;2.6;84.0
77803;DHT22;66993;48.256;16.422;2023-11-19T01:55:16;2.7;84.0
77803;DHT22;66993;48.256;16.422;2023-11-19T02:00:16;2.7;84.0
77803;DHT22;66993;48.256;16.422;2023-11-19T02:05:16;2.7;84.0
77803;DHT22;66993;48.256;16.422;2023-11-19T02:10:16;2.7;84.0
77803;DHT22;66993;48.256;16.422;2023-11-19T02:15:16;2.7;84.0
77803;DHT22;66993;48.256;16.422;2023-11-19T02:20:16;2.6;84.0
77803;DHT22;66993;48.256;16.422;2023-11-19T02:25:18;2.7;84.0
77803;DHT22;66993;48.256;16.422;2023-11-19T02:30:16;2.8;84.0
77803;DHT22;66993;48.256;16.422;2023-11-19T02:35:16;2.9;85.0
77803;DHT22;66993;48.256;16.422;2023-11-19T02:40:16;3.0;85.0
77803;DHT22;66993;48.256;16.422;2023-11-19T02:45:16;3.1;85.0
77803;DHT22;66993;48.256;16.422;2023-11-19T02:50:17;3.1;85.0
77803;DHT22;66993;48.256;16.422;2023-11-19T02:55:16;3.6;86.0
77803;DHT22;66993;48.256;16.422;2023-11-19T03:00:17;4.1;85.0
77803;DHT22;66993;48.256;16.422;2023-11-19T03:05:16;3.9;85.0
77803;DHT22;66993;48.256;16.422;2023-11-19T03:10:16;3.8;84.0
77803;DHT22;66993;48.256;16.422;2023-11-19T03:15:16;3.6;84.0
77803;DHT22;66993;48.256;16.422;2023-11-19T03:20:16;3.4;84.0
77803;DHT22;66993;48.256;16.422;2023-11-19T03:25:16;3.3;84.0
77803;DHT22;66993;48.256;16.422;2023-11-19T03:30:16;3.2;84.0
77803;DHT22;66993;48.256;16.422;2023-11-19T03:35:16;3.3;85.0
77803;DHT22;66993;48.256;16.422;2023-11-19T03:40:16;3.3;85.0
77803;DHT22;66993;48.256;16.422;2023-11-19T03:45:16;3.2;85.0
77803;DHT22;66993;48.256;16.422;2023-11-19T03:50:16;3.1;86.0
77803;DHT22;66993;48.256;16.422;2023-11-19T03:55:16;3.0;86.0
77803;DHT22;66993;48.256;16.422;2023-11-19T04:00:16;3.0;86.0
77803;DHT22;66993;48.256;16.422;2023-11-19T04:05:16;2.9;87.0
77803;DHT22;66993;48.256;16.422;2023-11-19T04:10:16;2.8;87.0
77803;DHT22;66993;48.256;16.422;2023-11-19T04:15:16;2.8;88.0
77803;DHT22;66993;48.256;16.422;2023-11-19T04:20:16;2.8;89.0
77803;DHT22;66993;48.256;16.422;2023-11-19T04:25:16;2.8;89.0
77803;DHT22;66993;48.256;16.422;2023-11-19T04:30:16;2.7;90.0
77803;DHT22;66993;48.256;16.422;2023-11-19T04:35:16;2.7;91.0
77803;DHT22;66993;48.256;16.422;2023-11-19T04:40:16;2.7;92.0
77803;DHT22;66993;48.256;16.422;2023-11-19T04:45:16;2.6;93.0
77803;DHT22;66993;48.256;16.422;2023-11-19T04:50:16;2.7;94.0
77803;DHT22;66993;48.256;16.422;2023-11-19T04:55:16;2.7;94.0
77803;DHT22;66993;48.256;16.422;2023-11-19T05:00:16;2.7;95.0
77803;DHT22;66993;48.256;16.422;2023-11-19T05:05:16;2.7;96.0
77803;DHT22;66993;48.256;16.422;2023-11-19T05:10:16;2.7;96.0
77803;DHT22;66993;48.256;16.422;2023-11-19T05:15:16;2.7;96.0
77803;DHT22;66993;48.256;16.422;2023-11-19T05:20:16;2.7;97.0
77803;DHT22;66993;48.256;16.422;2023-11-19T05:25:16;2.7;97.0
77803;DHT22;66993;48.256;16.422;2023-11-19T05:30:16;2.7;97.0
77803;DHT22;66993;48.256;16.422;2023-11-19T05:35:16;2.6;98.0
77803;DHT22;66993;48.256;16.422;2023-11-19T05:40:16;2.6;98.0
77803;DHT22;66993;48.256;16.422;2023-11-19T05:45:16;2.6;98.0
77803;DHT22;66993;48.256;16.422;2023-11-19T05:50:16;2.6;98.0
77803;DHT22;66993;48.256;16.422;2023-11-19T05:55:16;2.6;99.0
77803;DHT22;66993;48.256;16.422;2023-11-19T06:00:16;2.7;99.0
77803;DHT22;66993;48.256;16.422;2023-11-19T06:05:16;2.6;99.0
77803;DHT22;66993;48.256;16.422;2023-11-19T06:10:16;2.5;99.0
77803;DHT22;66993;48.256;16.422;2023-11-19T06:15:16;2.5;99.0
77803;DHT22;66993;48.256;16.422;2023-11-19T06:20:16;2.5;99.0
77803;DHT22;66993;48.256;16.422;2023-11-19T06:25:16;2.5;99.0
77803;DHT22;66993;48.256;16.422;2023-11-19T06:30:16;2.6;99.0
77803;DHT22;66993;48.256;16.422;2023-11-19T06:35:16;2.6;99.0
77803;DHT22;66993;48.256;16.422;2023-11-19T06:40:16;2.6;99.0
77803;DHT22;66993;48.256;16.422;2023-11-19T06:45:16;2.7;99.0
77803;DHT22;66993;48.256;16.422;2023-11-19T06:50:16;2.7;99.0
77803;DHT22;66993;48.256;16.422;2023-11-19T06:55:16;2.7;99.0
77803;DHT22;66993;48.256;16.422;2023-11-19T07:00:16;2.7;99.0
77803;DHT22;66993;48.256;16.422;2023-11-19T07:05:16;2.7;99.0
77803;DHT22;66993;48.256;16.422;2023-11-19T07:10:16;2.7;99.0
77803;DHT22;66993;48.256;16.422;2023-11-19T07:15:16;2.8;99.0
77803;DHT22;66993;48.256;16.422;2023-11-19T07:20:16;2.8;99.0
77803;DHT22;66993;48.256;16.422;2023-11-19T07:25:16;2.8;99.0
77803;DHT22;66993;48.256;16.422;2023-11-19T07:30:16;2.9;99.0
77803;DHT22;66993;48.256;16.422;2023-11-19T07:35:16;2.9;99.0
77803;DHT22;66993;48.256;16.422;2023-11-19T07:40:16;3.0;99.0
77803;DHT22;66993;48.256;16.422;2023-11-19T07:45:16;3.1;99.0
77803;DHT22;66993;48.256;16.422;2023-11-19T07:50:16;3.1;99.0
77803;DHT22;66993;48.256;16.422;2023-11-19T07:55:16;3.2;99.0
77803;DHT22;66993;48.256;16.422;2023-11-19T08:00:16;3.3;99.0
77803;DHT22;66993;48.256;16.422;2023-11-19T08:05:16;3.4;99.0
77803;DHT22;66993;48.256;16.422;2023-11-19T08:10:16;3.5;99.0
77803;DHT22;66993;48.256;16.422;2023-11-19T08:15:16;3.6;99.0
77803;DHT22;66993;48.256;16.422;2023-11-19T08:20:16;3.8;99.0
77803;DHT22;66993;48.256;16.422;2023-11-19T08:25:16;4.0;99.0
77803;DHT22;66993;48.256;16.422;2023-11-19T08:30:16;4.1;99.0
77803;DHT22;66993;48.256;16.422;2023-11-19T08:35:16;4.2;99.0
77803;DHT22;66993;48.256;16.422;2023-11-19T08:40:16;4.1;99.0
77803;DHT22;66993;48.256;16.422;2023-11-19T08:45:16;4.2;99.0
77803;DHT22;66993;48.256;16.422;2023-11-19T08:50:16;4.3;99.0
77803;DHT22;66993;48.256;16.422;2023-11-19T08:55:16;4.5;99.0
77803;DHT22;66993;48.256;16.422;2023-11-19T09:00:16;4.5;99.0
77803;DHT22;66993;48.256;16.422;2023-11-19T09:05:16;4.4;99.0
77803;DHT22;66993;48.256;16.422;2023-11-19T09:10:16;4.6;99.0
77803;DHT22;66993;48.256;16.422;2023-11-19T09:15:16;4.9;99.0
77803;DHT22;66993;48.256;16.422;2023-11-19T09:20:16;5.1;99.0
77803;DHT22;66993;48.256;16.422;2023-11-19T09:25:16;5.2;99.0
77803;DHT22;66993;48.256;16.422;2023-11-19T09:30:16;5.5;99.0
77803;DHT22;66993;48.256;16.422;2023-11-19T09:35:16;5.6;99.0
77803;DHT22;66993;48.256;16.422;2023-11-19T09:40:16;5.4;99.0
77803;DHT22;66993;48.256;16.422;2023-11-19T09:45:17;5.6;99.0
77803;DHT22;66993;48.256;16.422;2023-11-19T09:50:17;5.6;99.0
77803;DHT22;66993;48.256;16.422;2023-11-19T09:55:16;5.9;99.0
77803;DHT22;66993;48.256;16.422;2023-11-19T10:00:16;6.1;99.0
77803;DHT22;66993;48.256;16.422;2023-11-19T10:05:16;5.9;99.0
77803;DHT22;66993;48.256;16.422;2023-11-19T10:10:16;6.2;99.0
77803;DHT22;66993;48.256;16.422;2023-11-19T10:15:18;6.4;99.0
77803;DHT22;66993;48.256;16.422;2023-11-19T10:20:16;6.2;99.0
77803;DHT22;66993;48.256;16.422;2023-11-19T10:25:24;6.7;99.0
77803;DHT22;66993;48.256;16.422;2023-11-19T10:30:17;6.3;99.0
77803;DHT22;66993;48.256;16.422;2023-11-19T10:35:16;6.6;99.0
77803;DHT22;66993;48.256;16.422;2023-11-19T10:40:16;6.6;99.0
77803;DHT22;66993;48.256;16.422;2023-11-19T10:45:21;6.3;99.0
77803;DHT22;66993;48.256;16.422;2023-11-19T10:50:16;6.4;99.0
77803;DHT22;66993;48.256;16.422;2023-11-19T10:55:16;6.1;99.0
77803;DHT22;66993;48.256;16.422;2023-11-19T11:00:16;6.2;99.0
77803;DHT22;66993;48.256;16.422;2023-11-19T11:05:16;6.2;99.0
77803;DHT22;66993;48.256;16.422;2023-11-19T11:10:16;6.1;99.0
77803;DHT22;66993;48.256;16.422;2023-11-19T11:15:16;6.2;99.0
77803;DHT22;66993;48.256;16.422;2023-11-19T11:20:16;6.3;99.0
77803;DHT22;66993;48.256;16.422;2023-11-19T11:25:19;6.3;99.0
77803;DHT22;66993;48.256;16.422;2023-11-19T11:30:20;6.5;99.0
77803;DHT22;66993;48.256;16.422;2023-11-19T11:35:21;6.1;99.0
77803;DHT22;66993;48.256;16.422;2023-11-19T11:40:16;6.3;99.0
77803;DHT22;66993;48.256;16.422;2023-11-19T11:45:16;6.3;99.0
77803;DHT22;66993;48.256;16.422;2023-11-19T11:50:17;6.2;99.0
77803;DHT22;66993;48.256;16.422;2023-11-19T11:55:16;6.3;99.0
77803;DHT22;66993;48.256;16.422;2023-11-19T12:00:21;6.3;99.0
77803;DHT22;66993;48.256;16.422;2023-11-19T12:05:16;6.4;99.0
77803;DHT22;66993;48.256;16.422;2023-11-19T12:10:16;6.1;99.0
77803;DHT22;66993;48.256;16.422;2023-11-19T12:15:16;6.1;99.0
77803;DHT22;66993;48.256;16.422;2023-11-19T12:20:16;6.1;99.0
77803;DHT22;66993;48.256;16.422;2023-11-19T12:25:17;6.1;99.0
77803;DHT22;66993;48.256;16.422;2023-11-19T12:30:17;6.0;99.0
77803;DHT22;66993;48.256;16.422;2023-11-19T12:35:16;5.9;99.0
77803;DHT22;66993;48.256;16.422;2023-11-19T12:40:17;6.2;99.0
77803;DHT22;66993;48.256;16.422;2023-11-19T12:45:16;6.3;99.0
77803;DHT22;66993;48.256;16.422;2023-11-19T12:50:16;6.1;99.0
77803;DHT22;66993;48.256;16.422;2023-11-19T12:55:26;6.1;99.0
77803;DHT22;66993;48.256;16.422;2023-11-19T13:00:18;6.0;99.0
77803;DHT22;66993;48.256;16.422;2023-11-19T13:05:20;6.1;99.0
77803;DHT22;66993;48.256;16.422;2023-11-19T13:10:16;5.9;99.0
77803;DHT22;66993;48.256;16.422;2023-11-19T13:15:23;5.9;99.0
77803;DHT22;66993;48.256;16.422;2023-11-19T13:20:16;5.8;99.0
77803;DHT22;66993;48.256;16.422;2023-11-19T13:25:16;6.1;99.0
77803;DHT22;66993;48.256;16.422;2023-11-19T13:30:16;6.1;99.0
77803;DHT22;66993;48.256;16.422;2023-11-19T13:35:16;6.2;99.0
77803;DHT22;66993;48.256;16.422;2023-11-19T13:40:16;6.2;99.0
77803;DHT22;66993;48.256;16.422;2023-11-19T13:45:16;6.3;99.0
77803;DHT22;66993;48.256;16.422;2023-11-19T13:50:16;6.1;99.0
77803;DHT22;66993;48.256;16.422;2023-11-19T13:55:16;7.2;99.0
77803;DHT22;66993;48.256;16.422;2023-11-19T14:00:16;6.9;99.0
77803;DHT22;66993;48.256;16.422;2023-11-19T14:05:16;6.8;99.0
77803;DHT22;66993;48.256;16.422;2023-11-19T14:10:16;6.6;99.0
77803;DHT22;66993;48.256;16.422;2023-11-19T14:15:16;6.4;99.0
77803;DHT22;66993;48.256;16.422;2023-11-19T14:20:16;6.3;99.0
77803;DHT22;66993;48.256;16.422;2023-11-19T14:25:16;6.2;99.0
77803;DHT22;66993;48.256;16.422;2023-11-19T14:30:16;6.2;99.0
77803;DHT22;66993;48.256;16.422;2023-11-19T14:35:16;6.1;99.0
77803;DHT22;66993;48.256;16.422;2023-11-19T14:40:16;6.0;99.0
77803;DHT22;66993;48.256;16.422;2023-11-19T14:45:16;5.9;99.0
77803;DHT22;66993;48.256;16.422;2023-11-19T14:50:16;5.9;99.0
77803;DHT22;66993;48.256;16.422;2023-11-19T14:55:16;5.9;99.0
77803;DHT22;66993;48.256;16.422;2023-11-19T15:00:16;5.9;99.0
77803;DHT22;66993;48.256;16.422;2023-11-19T15:05:16;5.9;99.0
77803;DHT22;66993;48.256;16.422;2023-11-19T15:10:16;5.9;99.0
77803;DHT22;66993;48.256;16.422;2023-11-19T15:15:16;5.9;99.0
77803;DHT22;66993;48.256;16.422;2023-11-19T15:20:16;5.9;99.0
77803;DHT22;66993;48.256;16.422;2023-11-19T15:25:16;5.9;99.0
77803;DHT22;66993;48.256;16.422;2023-11-19T15:30:16;5.8;99.0
77803;DHT22;66993;48.256;16.422;2023-11-19T15:35:16;5.7;99.0
77803;DHT22;66993;48.256;16.422;2023-11-19T15:40:16;5.6;99.0
77803;DHT22;66993;48.256;16.422;2023-11-19T15:45:16;5.4;99.0
77803;DHT22;66993;48.256;16.422;2023-11-19T15:50:16;5.4;99.0
77803;DHT22;66993;48.256;16.422;2023-11-19T15:55:16;5.3;99.0
77803;DHT22;66993;48.256;16.422;2023-11-19T16:00:16;5.3;99.0
77803;DHT22;66993;48.256;16.422;2023-11-19T16:05:16;5.2;99.0
77803;DHT22;66993;48.256;16.422;2023-11-19T16:10:16;5.1;99.0
77803;DHT22;66993;48.256;16.422;2023-11-19T16:15:16;5.1;99.0
77803;DHT22;66993;48.256;16.422;2023-11-19T16:20:16;5.0;99.0
77803;DHT22;66993;48.256;16.422;2023-11-19T16:25:16;4.9;99.0
77803;DHT22;66993;48.256;16.422;2023-11-19T16:30:16;5.0;99.0
77803;DHT22;66993;48.256;16.422;2023-11-19T16:35:16;4.8;99.0
77803;DHT22;66993;48.256;16.422;2023-11-19T16:40:16;4.7;99.0
77803;DHT22;66993;48.256;16.422;2023-11-19T16:45:16;4.8;99.0
77803;DHT22;66993;48.256;16.422;2023-11-19T16:50:16;5.0;99.0
77803;DHT22;66993;48.256;16.422;2023-11-19T16:55:16;5.0;99.0
77803;DHT22;66993;48.256;16.422;2023-11-19T17:00:16;4.9;99.0
77803;DHT22;66993;48.256;16.422;2023-11-19T17:05:16;4.8;99.0
77803;DHT22;66993;48.256;16.422;2023-11-19T17:10:16;4.8;99.0
77803;DHT22;66993;48.256;16.422;2023-11-19T17:15:16;4.8;99.0
77803;DHT22;66993;48.256;16.422;2023-11-19T17:20:16;4.8;99.0
77803;DHT22;66993;48.256;16.422;2023-11-19T17:25:16;4.7;99.0
77803;DHT22;66993;48.256;16.422;2023-11-19T17:30:16;4.6;99.0
77803;DHT22;66993;48.256;16.422;2023-11-19T17:35:16;4.7;99.0
77803;DHT22;66993;48.256;16.422;2023-11-19T17:40:16;4.6;99.0
77803;DHT22;66993;48.256;16.422;2023-11-19T17:45:16;4.5;99.0
77803;DHT22;66993;48.256;16.422;2023-11-19T17:50:16;4.4;99.0
77803;DHT22;66993;48.256;16.422;2023-11-19T17:55:16;4.3;99.0
77803;DHT22;66993;48.256;16.422;2023-11-19T18:00:16;4.4;99.0
77803;DHT22;66993;48.256;16.422;2023-11-19T18:05:16;4.4;99.0
77803;DHT22;66993;48.256;16.422;2023-11-19T18:10:16;4.3;99.0
77803;DHT22;66993;48.256;16.422;2023-11-19T18:15:16;4.4;99.0
77803;DHT22;66993;48.256;16.422;2023-11-19T18:20:16;4.1;99.0
77803;DHT22;66993;48.256;16.422;2023-11-19T18:25:16;4.1;99.0
77803;DHT22;66993;48.256;16.422;2023-11-19T18:30:16;4.1;99.0
77803;DHT22;66993;48.256;16.422;2023-11-19T18:35:16;4.2;99.0
77803;DHT22;66993;48.256;16.422;2023-11-19T18:40:18;4.1;99.0
77803;DHT22;66993;48.256;16.422;2023-11-19T18:45:16;4.2;99.0
77803;DHT22;66993;48.256;16.422;2023-11-19T18:50:16;4.2;99.0
77803;DHT22;66993;48.256;16.422;2023-11-19T18:55:16;4.1;99.0
77803;DHT22;66993;48.256;16.422;2023-11-19T19:00:16;4.0;99.0
77803;DHT22;66993;48.256;16.422;2023-11-19T19:05:16;4.0;99.0
77803;DHT22;66993;48.256;16.422;2023-11-19T19:10:16;3.9;99.0
77803;DHT22;66993;48.256;16.422;2023-11-19T19:15:16;3.9;99.0
77803;DHT22;66993;48.256;16.422;2023-11-19T19:20:16;3.8;99.0
77803;DHT22;66993;48.256;16.422;2023-11-19T19:25:16;3.7;99.0
77803;DHT22;66993;48.256;16.422;2023-11-19T19:30:16;3.7;99.0
77803;DHT22;66993;48.256;16.422;2023-11-19T19:35:16;3.7;99.0
77803;DHT22;66993;48.256;16.422;2023-11-19T19:40:16;3.6;99.0
77803;DHT22;66993;48.256;16.422;2023-11-19T19:45:16;3.7;99.0
77803;DHT22;66993;48.256;16.422;2023-11-19T19:50:16;3.7;99.0
77803;DHT22;66993;48.256;16.422;2023-11-19T19:55:16;3.8;99.0
77803;DHT22;66993;48.256;16.422;2023-11-19T20:00:16;3.9;99.0
77803;DHT22;66993;48.256;16.422;2023-11-19T20:05:17;4.0;99.0
77803;DHT22;66993;48.256;16.422;2023-11-19T20:10:16;4.0;99.0
77803;DHT22;66993;48.256;16.422;2023-11-19T20:15:16;4.0;99.0
77803;DHT22;66993;48.256;16.422;2023-11-19T20:20:16;4.1;99.0
77803;DHT22;66993;48.256;16.422;2023-11-19T20:25:16;4.3;99.0
77803;DHT22;66993;48.256;16.422;2023-11-19T20:30:16;4.4;99.0
77803;DHT22;66993;48.256;16.422;2023-11-19T20:35:16;4.4;99.0
77803;DHT22;66993;48.256;16.422;2023-11-19T20:40:16;4.4;99.0
77803;DHT22;66993;48.256;16.422;2023-11-19T20:45:16;4.0;99.0
77803;DHT22;66993;48.256;16.422;2023-11-19T20:50:16;4.3;99.0
77803;DHT22;66993;48.256;16.422;2023-11-19T20:55:16;4.1;99.0
77803;DHT22;66993;48.256;16.422;2023-11-19T21:00:16;4.2;99.0
77803;DHT22;66993;48.256;16.422;2023-11-19T21:05:16;4.4;99.0
77803;DHT22;66993;48.256;16.422;2023-11-19T21:10:16;4.2;99.0
77803;DHT22;66993;48.256;16.422;2023-11-19T21:15:16;4.1;99.0
77803;DHT22;66993;48.256;16.422;2023-11-19T21:20:16;4.1;99.0
77803;DHT22;66993;48.256;16.422;2023-11-19T21:25:16;4.1;99.0
77803;DHT22;66993;48.256;16.422;2023-11-19T21:30:16;4.1;99.0
77803;DHT22;66993;48.256;16.422;2023-11-19T21:35:16;4.2;99.0
77803;DHT22;66993;48.256;16.422;2023-11-19T21:40:16;4.2;99.0
77803;DHT22;66993;48.256;16.422;2023-11-19T21:45:16;4.1;99.0
77803;DHT22;66993;48.256;16.422;2023-11-19T21:50:16;4.0;99.0
77803;DHT22;66993;48.256;16.422;2023-11-19T21:55:16;4.0;99.0
77803;DHT22;66993;48.256;16.422;2023-11-19T22:00:16;3.9;99.0
77803;DHT22;66993;48.256;16.422;2023-11-19T22:05:16;4.0;99.0
77803;DHT22;66993;48.256;16.422;2023-11-19T22:10:16;4.1;99.0
77803;DHT22;66993;48.256;16.422;2023-11-19T22:15:16;4.0;99.0
77803;DHT22;66993;48.256;16.422;2023-11-19T22:20:16;4.2;99.0
77803;DHT22;66993;48.256;16.422;2023-11-19T22:25:16;4.4;99.0
77803;DHT22;66993;48.256;16.422;2023-11-19T22:30:16;4.5;99.0
77803;DHT22;66993;48.256;16.422;2023-11-19T22:35:16;4.6;99.0
77803;DHT22;66993;48.256;16.422;2023-11-19T22:40:16;4.8;99.0
77803;DHT22;66993;48.256;16.422;2023-11-19T22:45:16;4.9;99.0
77803;DHT22;66993;48.256;16.422;2023-11-19T22:50:16;4.6;99.0
77803;DHT22;66993;48.256;16.422;2023-11-19T22:55:16;4.6;99.0
77803;DHT22;66993;48.256;16.422;2023-11-19T23:00:16;4.5;99.0
77803;DHT22;66993;48.256;16.422;2023-11-19T23:05:16;4.3;99.0
77803;DHT22;66993;48.256;16.422;2023-11-19T23:10:16;4.1;99.0
77803;DHT22;66993;48.256;16.422;2023-11-19T23:15:16;4.0;99.0
77803;DHT22;66993;48.256;16.422;2023-11-19T23:20:16;4.3;99.0
77803;DHT22;66993;48.256;16.422;2023-11-19T23:25:16;4.3;99.0
77803;DHT22;66993;48.256;16.422;2023-11-19T23:30:16;4.4;99.0
77803;DHT22;66993;48.256;16.422;2023-11-19T23:35:16;4.3;99.0
77803;DHT22;66993;48.256;16.422;2023-11-19T23:40:16;4.3;99.0
77803;DHT22;66993;48.256;16.422;2023-11-19T23:45:16;4.3;99.0
77803;DHT22;66993;48.256;16.422;2023-11-19T23:50:16;4.4;99.0
77803;DHT22;66993;48.256;16.422;2023-11-19T23:55:16;4.5;99.0
